sensor_id;sensor_type;location;lat;lon;timestamp;P1;durP1;ratioP1;P2;durP2;ratioP2
59486;SDS011;45298;54.918;73.504;2023-08-21T00:01:42;6.05;;;2.22;;
59486;SDS011;45298;54.918;73.504;2023-08-21T00:04:11;5.45;;;2.40;;
59486;SDS011;45298;54.918;73.504;2023-08-21T00:06:39;4.40;;;2.00;;
59486;SDS011;45298;54.918;73.504;2023-08-21T00:09:08;6.05;;;2.33;;
59486;SDS011;45298;54.918;73.504;2023-08-21T00:11:37;9.25;;;2.55;;
59486;SDS011;45298;54.918;73.504;2023-08-21T00:14:05;6.28;;;2.38;;
59486;SDS011;45298;54.918;73.504;2023-08-21T00:16:34;5.00;;;2.15;;
59486;SDS011;45298;54.918;73.504;2023-08-21T00:19:03;4.93;;;2.15;;
59486;SDS011;45298;54.918;73.504;2023-08-21T00:21:32;6.80;;;2.45;;
59486;SDS011;45298;54.918;73.504;2023-08-21T00:24:00;3.97;;;1.88;;
59486;SDS011;45298;54.918;73.504;2023-08-21T00:26:29;4.07;;;2.10;;
59486;SDS011;45298;54.918;73.504;2023-08-21T00:28:58;3.50;;;2.00;;
59486;SDS011;45298;54.918;73.504;2023-08-21T00:31:27;4.57;;;2.05;;
59486;SDS011;45298;54.918;73.504;2023-08-21T00:33:56;6.22;;;1.77;;
59486;SDS011;45298;54.918;73.504;2023-08-21T00:36:24;3.45;;;1.90;;
59486;SDS011;45298;54.918;73.504;2023-08-21T00:38:53;6.20;;;2.30;;
59486;SDS011;45298;54.918;73.504;2023-08-21T00:41:22;4.78;;;2.50;;
59486;SDS011;45298;54.918;73.504;2023-08-21T00:43:51;4.43;;;2.35;;
59486;SDS011;45298;54.918;73.504;2023-08-21T00:46:19;9.70;;;2.70;;
59486;SDS011;45298;54.918;73.504;2023-08-21T00:48:48;5.25;;;2.35;;
59486;SDS011;45298;54.918;73.504;2023-08-21T00:51:17;7.15;;;2.47;;
59486;SDS011;45298;54.918;73.504;2023-08-21T00:53:46;5.68;;;2.35;;
59486;SDS011;45298;54.918;73.504;2023-08-21T00:56:15;4.85;;;2.40;;
59486;SDS011;45298;54.918;73.504;2023-08-21T00:58:44;5.07;;;2.17;;
59486;SDS011;45298;54.918;73.504;2023-08-21T01:01:12;6.40;;;2.70;;
59486;SDS011;45298;54.918;73.504;2023-08-21T01:03:46;12.38;;;2.92;;
59486;SDS011;45298;54.918;73.504;2023-08-21T01:06:15;5.93;;;2.40;;
59486;SDS011;45298;54.918;73.504;2023-08-21T01:11:52;7.93;;;2.92;;
59486;SDS011;45298;54.918;73.504;2023-08-21T01:17:19;32.97;;;9.90;;
59486;SDS011;45298;54.918;73.504;2023-08-21T01:19:50;34.00;;;9.20;;
59486;SDS011;45298;54.918;73.504;2023-08-21T01:22:25;18.67;;;6.20;;
59486;SDS011;45298;54.918;73.504;2023-08-21T01:25:05;21.13;;;7.05;;
59486;SDS011;45298;54.918;73.504;2023-08-21T01:27:35;19.50;;;5.75;;
59486;SDS011;45298;54.918;73.504;2023-08-21T01:30:04;17.20;;;5.43;;
59486;SDS011;45298;54.918;73.504;2023-08-21T01:35:24;11.38;;;4.40;;
59486;SDS011;45298;54.918;73.504;2023-08-21T01:37:54;12.93;;;4.80;;
59486;SDS011;45298;54.918;73.504;2023-08-21T01:40:23;11.10;;;3.60;;
59486;SDS011;45298;54.918;73.504;2023-08-21T01:42:53;4.28;;;1.83;;
59486;SDS011;45298;54.918;73.504;2023-08-21T01:45:22;2.15;;;1.35;;
59486;SDS011;45298;54.918;73.504;2023-08-21T01:47:51;1.63;;;0.98;;
59486;SDS011;45298;54.918;73.504;2023-08-21T01:50:20;1.10;;;0.70;;
59486;SDS011;45298;54.918;73.504;2023-08-21T01:52:49;1.40;;;0.90;;
59486;SDS011;45298;54.918;73.504;2023-08-21T01:55:20;1.33;;;1.00;;
59486;SDS011;45298;54.918;73.504;2023-08-21T01:57:48;1.52;;;0.80;;
59486;SDS011;45298;54.918;73.504;2023-08-21T02:00:17;1.40;;;0.80;;
59486;SDS011;45298;54.918;73.504;2023-08-21T02:02:46;2.08;;;0.70;;
59486;SDS011;45298;54.918;73.504;2023-08-21T02:05:15;1.30;;;0.80;;
59486;SDS011;45298;54.918;73.504;2023-08-21T02:07:44;3.55;;;0.60;;
59486;SDS011;45298;54.918;73.504;2023-08-21T02:10:13;2.85;;;0.75;;
59486;SDS011;45298;54.918;73.504;2023-08-21T02:12:42;1.10;;;0.70;;
59486;SDS011;45298;54.918;73.504;2023-08-21T02:15:11;1.48;;;0.75;;
59486;SDS011;45298;54.918;73.504;2023-08-21T02:17:40;1.00;;;0.70;;
59486;SDS011;45298;54.918;73.504;2023-08-21T02:20:12;0.73;;;0.73;;
59486;SDS011;45298;54.918;73.504;2023-08-21T02:22:41;4.00;;;0.75;;
59486;SDS011;45298;54.918;73.504;2023-08-21T02:25:10;1.55;;;0.70;;
59486;SDS011;45298;54.918;73.504;2023-08-21T02:27:40;1.42;;;0.75;;
59486;SDS011;45298;54.918;73.504;2023-08-21T02:30:09;2.28;;;0.70;;
59486;SDS011;45298;54.918;73.504;2023-08-21T02:32:38;2.05;;;0.65;;
59486;SDS011;45298;54.918;73.504;2023-08-21T02:35:08;1.17;;;0.60;;
59486;SDS011;45298;54.918;73.504;2023-08-21T02:37:37;0.88;;;0.70;;
59486;SDS011;45298;54.918;73.504;2023-08-21T02:40:07;0.85;;;0.70;;
59486;SDS011;45298;54.918;73.504;2023-08-21T02:42:36;1.10;;;0.60;;
59486;SDS011;45298;54.918;73.504;2023-08-21T02:45:06;1.05;;;0.65;;
59486;SDS011;45298;54.918;73.504;2023-08-21T02:47:38;4.70;;;0.70;;
59486;SDS011;45298;54.918;73.504;2023-08-21T02:50:08;0.63;;;0.50;;
59486;SDS011;45298;54.918;73.504;2023-08-21T02:52:37;0.93;;;0.60;;
59486;SDS011;45298;54.918;73.504;2023-08-21T02:55:07;0.40;;;0.40;;
59486;SDS011;45298;54.918;73.504;2023-08-21T02:57:36;1.05;;;0.50;;
59486;SDS011;45298;54.918;73.504;2023-08-21T03:00:05;0.70;;;0.50;;
59486;SDS011;45298;54.918;73.504;2023-08-21T03:02:36;0.77;;;0.70;;
59486;SDS011;45298;54.918;73.504;2023-08-21T03:05:06;1.17;;;0.63;;
59486;SDS011;45298;54.918;73.504;2023-08-21T03:07:36;1.50;;;0.70;;
59486;SDS011;45298;54.918;73.504;2023-08-21T03:10:06;0.85;;;0.60;;
59486;SDS011;45298;54.918;73.504;2023-08-21T03:12:35;1.33;;;0.70;;
59486;SDS011;45298;54.918;73.504;2023-08-21T03:15:05;1.45;;;0.80;;
59486;SDS011;45298;54.918;73.504;2023-08-21T03:17:35;3.70;;;0.60;;
59486;SDS011;45298;54.918;73.504;2023-08-21T03:20:04;1.50;;;0.70;;
59486;SDS011;45298;54.918;73.504;2023-08-21T03:22:34;1.90;;;0.75;;
59486;SDS011;45298;54.918;73.504;2023-08-21T03:25:03;0.95;;;0.68;;
59486;SDS011;45298;54.918;73.504;2023-08-21T03:27:33;1.45;;;0.70;;
59486;SDS011;45298;54.918;73.504;2023-08-21T03:30:03;1.02;;;0.77;;
59486;SDS011;45298;54.918;73.504;2023-08-21T03:32:36;1.27;;;0.70;;
59486;SDS011;45298;54.918;73.504;2023-08-21T03:35:05;1.10;;;0.60;;
59486;SDS011;45298;54.918;73.504;2023-08-21T03:37:35;1.65;;;0.80;;
59486;SDS011;45298;54.918;73.504;2023-08-21T03:40:06;0.80;;;0.70;;
59486;SDS011;45298;54.918;73.504;2023-08-21T03:42:35;3.83;;;0.50;;
59486;SDS011;45298;54.918;73.504;2023-08-21T03:45:06;0.70;;;0.60;;
59486;SDS011;45298;54.918;73.504;2023-08-21T03:47:35;0.90;;;0.63;;
59486;SDS011;45298;54.918;73.504;2023-08-21T03:50:10;0.75;;;0.50;;
59486;SDS011;45298;54.918;73.504;2023-08-21T03:52:39;0.50;;;0.50;;
59486;SDS011;45298;54.918;73.504;2023-08-21T03:55:08;1.00;;;0.70;;
59486;SDS011;45298;54.918;73.504;2023-08-21T03:57:37;0.70;;;0.60;;
59486;SDS011;45298;54.918;73.504;2023-08-21T04:00:06;0.80;;;0.70;;
59486;SDS011;45298;54.918;73.504;2023-08-21T04:02:43;1.77;;;0.88;;
59486;SDS011;45298;54.918;73.504;2023-08-21T04:05:12;4.05;;;0.80;;
59486;SDS011;45298;54.918;73.504;2023-08-21T04:07:42;0.80;;;0.70;;
59486;SDS011;45298;54.918;73.504;2023-08-21T04:10:10;0.90;;;0.80;;
59486;SDS011;45298;54.918;73.504;2023-08-21T04:12:39;1.23;;;0.90;;
59486;SDS011;45298;54.918;73.504;2023-08-21T04:15:08;1.00;;;0.80;;
59486;SDS011;45298;54.918;73.504;2023-08-21T04:17:37;1.50;;;0.95;;
59486;SDS011;45298;54.918;73.504;2023-08-21T04:20:06;1.10;;;0.90;;
59486;SDS011;45298;54.918;73.504;2023-08-21T04:22:36;1.38;;;0.70;;
59486;SDS011;45298;54.918;73.504;2023-08-21T04:25:05;1.13;;;0.80;;
59486;SDS011;45298;54.918;73.504;2023-08-21T04:27:34;1.10;;;0.70;;
59486;SDS011;45298;54.918;73.504;2023-08-21T04:30:03;0.82;;;0.70;;
59486;SDS011;45298;54.918;73.504;2023-08-21T04:32:33;0.70;;;0.63;;
59486;SDS011;45298;54.918;73.504;2023-08-21T04:35:04;0.93;;;0.70;;
59486;SDS011;45298;54.918;73.504;2023-08-21T04:37:33;2.45;;;0.75;;
59486;SDS011;45298;54.918;73.504;2023-08-21T04:40:05;2.40;;;0.80;;
59486;SDS011;45298;54.918;73.504;2023-08-21T04:42:34;1.83;;;0.90;;
59486;SDS011;45298;54.918;73.504;2023-08-21T04:45:04;3.17;;;0.95;;
59486;SDS011;45298;54.918;73.504;2023-08-21T04:47:36;0.93;;;0.85;;
59486;SDS011;45298;54.918;73.504;2023-08-21T04:50:05;1.08;;;0.70;;
59486;SDS011;45298;54.918;73.504;2023-08-21T04:52:34;0.85;;;0.70;;
59486;SDS011;45298;54.918;73.504;2023-08-21T04:55:03;4.90;;;0.88;;
59486;SDS011;45298;54.918;73.504;2023-08-21T04:57:34;0.88;;;0.60;;
59486;SDS011;45298;54.918;73.504;2023-08-21T05:00:06;0.90;;;0.73;;
59486;SDS011;45298;54.918;73.504;2023-08-21T05:02:38;1.90;;;0.80;;
59486;SDS011;45298;54.918;73.504;2023-08-21T05:05:07;3.20;;;0.90;;
59486;SDS011;45298;54.918;73.504;2023-08-21T05:07:36;0.75;;;0.60;;
59486;SDS011;45298;54.918;73.504;2023-08-21T05:10:05;0.85;;;0.60;;
59486;SDS011;45298;54.918;73.504;2023-08-21T05:12:36;0.80;;;0.60;;
59486;SDS011;45298;54.918;73.504;2023-08-21T05:15:05;1.17;;;0.70;;
59486;SDS011;45298;54.918;73.504;2023-08-21T05:17:35;0.90;;;0.77;;
59486;SDS011;45298;54.918;73.504;2023-08-21T05:20:04;0.93;;;0.80;;
59486;SDS011;45298;54.918;73.504;2023-08-21T05:22:33;1.50;;;0.88;;
59486;SDS011;45298;54.918;73.504;2023-08-21T05:25:02;1.27;;;0.73;;
59486;SDS011;45298;54.918;73.504;2023-08-21T05:27:31;1.10;;;0.90;;
59486;SDS011;45298;54.918;73.504;2023-08-21T05:30:00;2.25;;;0.70;;
59486;SDS011;45298;54.918;73.504;2023-08-21T05:32:31;1.05;;;0.73;;
59486;SDS011;45298;54.918;73.504;2023-08-21T05:35:00;0.95;;;0.75;;
59486;SDS011;45298;54.918;73.504;2023-08-21T05:37:30;0.73;;;0.63;;
59486;SDS011;45298;54.918;73.504;2023-08-21T05:40:00;2.13;;;0.70;;
59486;SDS011;45298;54.918;73.504;2023-08-21T05:42:32;0.80;;;0.70;;
59486;SDS011;45298;54.918;73.504;2023-08-21T05:45:01;2.15;;;0.70;;
59486;SDS011;45298;54.918;73.504;2023-08-21T05:47:33;1.13;;;0.80;;
59486;SDS011;45298;54.918;73.504;2023-08-21T05:50:01;1.17;;;0.80;;
59486;SDS011;45298;54.918;73.504;2023-08-21T05:52:31;2.83;;;0.80;;
59486;SDS011;45298;54.918;73.504;2023-08-21T05:55:01;3.00;;;0.80;;
59486;SDS011;45298;54.918;73.504;2023-08-21T05:57:30;2.10;;;0.80;;
59486;SDS011;45298;54.918;73.504;2023-08-21T05:59:59;0.82;;;0.70;;
59486;SDS011;45298;54.918;73.504;2023-08-21T06:02:29;1.38;;;0.80;;
59486;SDS011;45298;54.918;73.504;2023-08-21T06:04:58;1.27;;;0.80;;
59486;SDS011;45298;54.918;73.504;2023-08-21T06:07:27;1.02;;;0.70;;
59486;SDS011;45298;54.918;73.504;2023-08-21T06:09:56;2.30;;;0.80;;
59486;SDS011;45298;54.918;73.504;2023-08-21T06:12:25;0.90;;;0.70;;
59486;SDS011;45298;54.918;73.504;2023-08-21T06:14:56;2.30;;;0.82;;
59486;SDS011;45298;54.918;73.504;2023-08-21T06:17:26;2.22;;;0.80;;
59486;SDS011;45298;54.918;73.504;2023-08-21T06:19:56;2.00;;;0.70;;
59486;SDS011;45298;54.918;73.504;2023-08-21T06:22:24;1.48;;;0.90;;
59486;SDS011;45298;54.918;73.504;2023-08-21T06:24:54;2.38;;;0.80;;
59486;SDS011;45298;54.918;73.504;2023-08-21T06:27:23;1.40;;;0.77;;
59486;SDS011;45298;54.918;73.504;2023-08-21T06:29:52;2.10;;;1.00;;
59486;SDS011;45298;54.918;73.504;2023-08-21T06:32:21;1.30;;;0.70;;
59486;SDS011;45298;54.918;73.504;2023-08-21T06:34:51;4.57;;;0.98;;
59486;SDS011;45298;54.918;73.504;2023-08-21T06:37:19;1.33;;;0.80;;
59486;SDS011;45298;54.918;73.504;2023-08-21T06:39:48;0.90;;;0.80;;
59486;SDS011;45298;54.918;73.504;2023-08-21T06:42:17;5.40;;;0.70;;
59486;SDS011;45298;54.918;73.504;2023-08-21T06:44:49;2.17;;;0.70;;
59486;SDS011;45298;54.918;73.504;2023-08-21T06:47:18;1.90;;;0.80;;
59486;SDS011;45298;54.918;73.504;2023-08-21T06:49:47;0.65;;;0.65;;
59486;SDS011;45298;54.918;73.504;2023-08-21T06:52:17;1.67;;;0.80;;
59486;SDS011;45298;54.918;73.504;2023-08-21T06:54:46;2.20;;;0.90;;
59486;SDS011;45298;54.918;73.504;2023-08-21T06:57:15;2.75;;;0.80;;
59486;SDS011;45298;54.918;73.504;2023-08-21T06:59:44;1.33;;;0.80;;
59486;SDS011;45298;54.918;73.504;2023-08-21T07:02:13;1.40;;;0.80;;
59486;SDS011;45298;54.918;73.504;2023-08-21T07:04:41;2.20;;;0.80;;
59486;SDS011;45298;54.918;73.504;2023-08-21T07:07:11;1.10;;;0.60;;
59486;SDS011;45298;54.918;73.504;2023-08-21T07:09:39;1.35;;;0.70;;
59486;SDS011;45298;54.918;73.504;2023-08-21T07:12:08;1.50;;;0.65;;
59486;SDS011;45298;54.918;73.504;2023-08-21T07:14:37;1.02;;;0.70;;
59486;SDS011;45298;54.918;73.504;2023-08-21T07:17:06;0.68;;;0.50;;
59486;SDS011;45298;54.918;73.504;2023-08-21T07:19:34;0.98;;;0.50;;
59486;SDS011;45298;54.918;73.504;2023-08-21T07:22:03;0.80;;;0.70;;
59486;SDS011;45298;54.918;73.504;2023-08-21T07:24:32;2.17;;;0.60;;
59486;SDS011;45298;54.918;73.504;2023-08-21T07:27:01;0.75;;;0.60;;
59486;SDS011;45298;54.918;73.504;2023-08-21T07:29:30;1.00;;;0.70;;
59486;SDS011;45298;54.918;73.504;2023-08-21T07:31:58;0.70;;;0.60;;
59486;SDS011;45298;54.918;73.504;2023-08-21T07:34:27;1.08;;;0.70;;
59486;SDS011;45298;54.918;73.504;2023-08-21T07:36:56;1.77;;;0.68;;
59486;SDS011;45298;54.918;73.504;2023-08-21T07:39:25;1.05;;;0.70;;
59486;SDS011;45298;54.918;73.504;2023-08-21T07:41:54;0.80;;;0.60;;
59486;SDS011;45298;54.918;73.504;2023-08-21T07:44:23;3.35;;;0.63;;
59486;SDS011;45298;54.918;73.504;2023-08-21T07:46:52;1.00;;;0.70;;
59486;SDS011;45298;54.918;73.504;2023-08-21T07:49:20;0.75;;;0.70;;
59486;SDS011;45298;54.918;73.504;2023-08-21T07:51:49;3.28;;;0.73;;
59486;SDS011;45298;54.918;73.504;2023-08-21T07:54:18;0.98;;;0.63;;
59486;SDS011;45298;54.918;73.504;2023-08-21T07:56:46;3.03;;;0.75;;
59486;SDS011;45298;54.918;73.504;2023-08-21T07:59:18;1.65;;;0.80;;
59486;SDS011;45298;54.918;73.504;2023-08-21T08:01:48;1.25;;;0.80;;
59486;SDS011;45298;54.918;73.504;2023-08-21T08:04:17;0.77;;;0.60;;
59486;SDS011;45298;54.918;73.504;2023-08-21T08:06:46;3.75;;;0.60;;
59486;SDS011;45298;54.918;73.504;2023-08-21T08:09:15;2.55;;;0.80;;
59486;SDS011;45298;54.918;73.504;2023-08-21T08:11:44;0.73;;;0.57;;
59486;SDS011;45298;54.918;73.504;2023-08-21T08:14:12;2.20;;;0.65;;
59486;SDS011;45298;54.918;73.504;2023-08-21T08:16:42;1.20;;;0.60;;
59486;SDS011;45298;54.918;73.504;2023-08-21T08:19:10;1.00;;;0.60;;
59486;SDS011;45298;54.918;73.504;2023-08-21T08:21:39;0.85;;;0.65;;
59486;SDS011;45298;54.918;73.504;2023-08-21T08:24:08;1.52;;;0.73;;
59486;SDS011;45298;54.918;73.504;2023-08-21T08:26:36;2.05;;;0.60;;
59486;SDS011;45298;54.918;73.504;2023-08-21T08:29:05;0.75;;;0.60;;
59486;SDS011;45298;54.918;73.504;2023-08-21T08:31:36;0.98;;;0.50;;
59486;SDS011;45298;54.918;73.504;2023-08-21T08:34:07;2.72;;;0.52;;
59486;SDS011;45298;54.918;73.504;2023-08-21T08:36:35;3.22;;;0.70;;
59486;SDS011;45298;54.918;73.504;2023-08-21T08:39:04;1.45;;;0.60;;
59486;SDS011;45298;54.918;73.504;2023-08-21T08:41:38;1.13;;;0.50;;
59486;SDS011;45298;54.918;73.504;2023-08-21T08:44:27;1.43;;;0.60;;
59486;SDS011;45298;54.918;73.504;2023-08-21T08:46:57;4.90;;;0.60;;
59486;SDS011;45298;54.918;73.504;2023-08-21T08:49:28;2.58;;;0.60;;
59486;SDS011;45298;54.918;73.504;2023-08-21T08:51:58;3.30;;;0.60;;
59486;SDS011;45298;54.918;73.504;2023-08-21T08:54:29;1.35;;;0.70;;
59486;SDS011;45298;54.918;73.504;2023-08-21T08:56:59;1.17;;;0.70;;
59486;SDS011;45298;54.918;73.504;2023-08-21T08:59:31;2.42;;;0.52;;
59486;SDS011;45298;54.918;73.504;2023-08-21T09:02:01;2.42;;;0.60;;
59486;SDS011;45298;54.918;73.504;2023-08-21T09:04:30;0.50;;;0.50;;
59486;SDS011;45298;54.918;73.504;2023-08-21T09:07:06;2.75;;;0.60;;
59486;SDS011;45298;54.918;73.504;2023-08-21T09:09:39;1.00;;;0.60;;
59486;SDS011;45298;54.918;73.504;2023-08-21T09:12:12;4.75;;;0.70;;
59486;SDS011;45298;54.918;73.504;2023-08-21T09:14:42;3.60;;;0.68;;
59486;SDS011;45298;54.918;73.504;2023-08-21T09:17:12;1.08;;;0.50;;
59486;SDS011;45298;54.918;73.504;2023-08-21T09:19:47;1.08;;;0.60;;
59486;SDS011;45298;54.918;73.504;2023-08-21T09:22:16;0.90;;;0.80;;
59486;SDS011;45298;54.918;73.504;2023-08-21T09:27:35;1.58;;;0.80;;
59486;SDS011;45298;54.918;73.504;2023-08-21T09:30:10;2.63;;;0.60;;
59486;SDS011;45298;54.918;73.504;2023-08-21T09:33:05;5.28;;;0.70;;
59486;SDS011;45298;54.918;73.504;2023-08-21T09:35:36;0.60;;;0.60;;
59486;SDS011;45298;54.918;73.504;2023-08-21T09:38:05;1.75;;;0.68;;
59486;SDS011;45298;54.918;73.504;2023-08-21T09:40:38;0.85;;;0.63;;
59486;SDS011;45298;54.918;73.504;2023-08-21T09:43:09;1.23;;;0.50;;
59486;SDS011;45298;54.918;73.504;2023-08-21T09:45:42;0.70;;;0.60;;
59486;SDS011;45298;54.918;73.504;2023-08-21T09:48:14;1.10;;;0.50;;
59486;SDS011;45298;54.918;73.504;2023-08-21T09:50:44;1.85;;;0.68;;
59486;SDS011;45298;54.918;73.504;2023-08-21T09:53:14;0.77;;;0.60;;
59486;SDS011;45298;54.918;73.504;2023-08-21T09:55:43;0.85;;;0.70;;
59486;SDS011;45298;54.918;73.504;2023-08-21T09:58:13;3.60;;;0.68;;
59486;SDS011;45298;54.918;73.504;2023-08-21T10:00:42;0.77;;;0.60;;
59486;SDS011;45298;54.918;73.504;2023-08-21T10:03:12;2.03;;;0.63;;
59486;SDS011;45298;54.918;73.504;2023-08-21T10:05:42;0.95;;;0.63;;
59486;SDS011;45298;54.918;73.504;2023-08-21T10:08:11;3.42;;;0.60;;
59486;SDS011;45298;54.918;73.504;2023-08-21T10:10:43;0.57;;;0.50;;
59486;SDS011;45298;54.918;73.504;2023-08-21T10:13:14;0.80;;;0.55;;
59486;SDS011;45298;54.918;73.504;2023-08-21T10:15:44;1.60;;;0.60;;
59486;SDS011;45298;54.918;73.504;2023-08-21T10:18:25;2.65;;;0.57;;
59486;SDS011;45298;54.918;73.504;2023-08-21T10:21:13;0.85;;;0.60;;
59486;SDS011;45298;54.918;73.504;2023-08-21T10:23:47;0.73;;;0.60;;
59486;SDS011;45298;54.918;73.504;2023-08-21T10:26:20;1.33;;;0.63;;
59486;SDS011;45298;54.918;73.504;2023-08-21T10:28:51;0.60;;;0.50;;
59486;SDS011;45298;54.918;73.504;2023-08-21T10:31:31;0.77;;;0.50;;
59486;SDS011;45298;54.918;73.504;2023-08-21T10:34:12;1.33;;;0.55;;
59486;SDS011;45298;54.918;73.504;2023-08-21T10:39:16;0.73;;;0.50;;
59486;SDS011;45298;54.918;73.504;2023-08-21T10:41:53;1.35;;;0.70;;
59486;SDS011;45298;54.918;73.504;2023-08-21T10:49:52;1.70;;;0.60;;
59486;SDS011;45298;54.918;73.504;2023-08-21T10:52:29;0.70;;;0.50;;
59486;SDS011;45298;54.918;73.504;2023-08-21T10:55:02;1.10;;;0.50;;
59486;SDS011;45298;54.918;73.504;2023-08-21T10:57:34;1.42;;;0.60;;
59486;SDS011;45298;54.918;73.504;2023-08-21T11:00:04;2.00;;;0.60;;
59486;SDS011;45298;54.918;73.504;2023-08-21T11:02:41;0.60;;;0.60;;
59486;SDS011;45298;54.918;73.504;2023-08-21T11:05:12;0.75;;;0.60;;
59486;SDS011;45298;54.918;73.504;2023-08-21T11:07:43;2.88;;;0.57;;
59486;SDS011;45298;54.918;73.504;2023-08-21T11:10:14;1.33;;;0.60;;
59486;SDS011;45298;54.918;73.504;2023-08-21T11:12:53;0.65;;;0.50;;
59486;SDS011;45298;54.918;73.504;2023-08-21T11:15:26;1.15;;;0.52;;
59486;SDS011;45298;54.918;73.504;2023-08-21T11:17:57;2.78;;;0.70;;
59486;SDS011;45298;54.918;73.504;2023-08-21T11:20:32;0.93;;;0.60;;
59486;SDS011;45298;54.918;73.504;2023-08-21T11:23:03;3.65;;;0.70;;
59486;SDS011;45298;54.918;73.504;2023-08-21T11:25:39;1.08;;;0.60;;
59486;SDS011;45298;54.918;73.504;2023-08-21T11:28:08;2.22;;;0.55;;
59486;SDS011;45298;54.918;73.504;2023-08-21T11:30:37;1.83;;;0.63;;
59486;SDS011;45298;54.918;73.504;2023-08-21T11:33:13;2.47;;;0.70;;
59486;SDS011;45298;54.918;73.504;2023-08-21T11:35:42;0.68;;;0.50;;
59486;SDS011;45298;54.918;73.504;2023-08-21T11:38:18;3.22;;;0.60;;
59486;SDS011;45298;54.918;73.504;2023-08-21T11:40:52;1.70;;;0.70;;
59486;SDS011;45298;54.918;73.504;2023-08-21T11:43:22;3.60;;;0.63;;
59486;SDS011;45298;54.918;73.504;2023-08-21T11:46:02;2.95;;;0.75;;
59486;SDS011;45298;54.918;73.504;2023-08-21T11:48:32;2.58;;;0.60;;
59486;SDS011;45298;54.918;73.504;2023-08-21T11:51:01;1.45;;;0.60;;
59486;SDS011;45298;54.918;73.504;2023-08-21T11:53:34;7.05;;;0.70;;
59486;SDS011;45298;54.918;73.504;2023-08-21T11:56:11;0.82;;;0.55;;
59486;SDS011;45298;54.918;73.504;2023-08-21T11:58:44;0.77;;;0.50;;
59486;SDS011;45298;54.918;73.504;2023-08-21T12:01:20;4.90;;;0.77;;
59486;SDS011;45298;54.918;73.504;2023-08-21T12:03:50;3.60;;;0.82;;
59486;SDS011;45298;54.918;73.504;2023-08-21T12:06:23;2.50;;;0.60;;
59486;SDS011;45298;54.918;73.504;2023-08-21T12:08:53;0.60;;;0.50;;
59486;SDS011;45298;54.918;73.504;2023-08-21T12:11:26;3.40;;;0.52;;
59486;SDS011;45298;54.918;73.504;2023-08-21T12:13:55;1.27;;;0.52;;
59486;SDS011;45298;54.918;73.504;2023-08-21T12:16:24;1.35;;;0.60;;
59486;SDS011;45298;54.918;73.504;2023-08-21T12:18:53;1.05;;;0.52;;
59486;SDS011;45298;54.918;73.504;2023-08-21T12:21:25;2.25;;;0.70;;
59486;SDS011;45298;54.918;73.504;2023-08-21T12:23:54;1.75;;;0.60;;
59486;SDS011;45298;54.918;73.504;2023-08-21T12:26:23;2.63;;;0.73;;
59486;SDS011;45298;54.918;73.504;2023-08-21T12:29:03;3.38;;;0.60;;
59486;SDS011;45298;54.918;73.504;2023-08-21T12:31:32;1.33;;;0.68;;
59486;SDS011;45298;54.918;73.504;2023-08-21T12:34:01;1.98;;;0.60;;
59486;SDS011;45298;54.918;73.504;2023-08-21T12:36:30;3.15;;;0.60;;
59486;SDS011;45298;54.918;73.504;2023-08-21T12:38:59;2.70;;;0.70;;
59486;SDS011;45298;54.918;73.504;2023-08-21T12:41:27;1.95;;;0.63;;
59486;SDS011;45298;54.918;73.504;2023-08-21T12:43:56;3.60;;;0.88;;
59486;SDS011;45298;54.918;73.504;2023-08-21T12:46:25;2.13;;;1.08;;
59486;SDS011;45298;54.918;73.504;2023-08-21T12:48:55;3.42;;;1.10;;
59486;SDS011;45298;54.918;73.504;2023-08-21T12:51:25;1.75;;;1.05;;
59486;SDS011;45298;54.918;73.504;2023-08-21T12:53:54;3.97;;;1.00;;
59486;SDS011;45298;54.918;73.504;2023-08-21T12:56:23;5.05;;;0.85;;
59486;SDS011;45298;54.918;73.504;2023-08-21T12:58:52;11.45;;;0.90;;
59486;SDS011;45298;54.918;73.504;2023-08-21T13:01:21;2.63;;;1.02;;
59486;SDS011;45298;54.918;73.504;2023-08-21T13:03:50;5.43;;;1.00;;
59486;SDS011;45298;54.918;73.504;2023-08-21T13:06:19;1.48;;;0.70;;
59486;SDS011;45298;54.918;73.504;2023-08-21T13:08:47;3.50;;;0.85;;
59486;SDS011;45298;54.918;73.504;2023-08-21T13:11:16;1.02;;;0.57;;
59486;SDS011;45298;54.918;73.504;2023-08-21T13:13:45;2.33;;;0.60;;
59486;SDS011;45298;54.918;73.504;2023-08-21T13:16:14;3.13;;;0.70;;
59486;SDS011;45298;54.918;73.504;2023-08-21T13:18:43;2.78;;;0.90;;
59486;SDS011;45298;54.918;73.504;2023-08-21T13:21:15;2.90;;;0.90;;
59486;SDS011;45298;54.918;73.504;2023-08-21T13:23:44;2.63;;;1.02;;
59486;SDS011;45298;54.918;73.504;2023-08-21T13:26:14;1.92;;;1.00;;
59486;SDS011;45298;54.918;73.504;2023-08-21T13:28:43;4.43;;;0.90;;
59486;SDS011;45298;54.918;73.504;2023-08-21T13:31:12;2.88;;;0.80;;
59486;SDS011;45298;54.918;73.504;2023-08-21T13:33:45;1.75;;;0.70;;
59486;SDS011;45298;54.918;73.504;2023-08-21T13:36:20;2.50;;;1.10;;
59486;SDS011;45298;54.918;73.504;2023-08-21T13:38:51;5.22;;;0.93;;
59486;SDS011;45298;54.918;73.504;2023-08-21T13:41:20;5.35;;;0.80;;
59486;SDS011;45298;54.918;73.504;2023-08-21T13:43:49;5.75;;;0.75;;
59486;SDS011;45298;54.918;73.504;2023-08-21T13:46:22;7.00;;;0.68;;
59486;SDS011;45298;54.918;73.504;2023-08-21T13:48:50;5.25;;;0.77;;
59486;SDS011;45298;54.918;73.504;2023-08-21T13:51:19;8.57;;;2.25;;
59486;SDS011;45298;54.918;73.504;2023-08-21T13:53:48;10.95;;;1.25;;
59486;SDS011;45298;54.918;73.504;2023-08-21T13:56:18;4.13;;;0.95;;
59486;SDS011;45298;54.918;73.504;2023-08-21T13:58:49;7.05;;;1.25;;
59486;SDS011;45298;54.918;73.504;2023-08-21T14:01:18;10.20;;;1.20;;
59486;SDS011;45298;54.918;73.504;2023-08-21T14:03:46;12.77;;;1.27;;
59486;SDS011;45298;54.918;73.504;2023-08-21T14:06:18;5.82;;;1.10;;
59486;SDS011;45298;54.918;73.504;2023-08-21T14:08:47;12.23;;;1.27;;
59486;SDS011;45298;54.918;73.504;2023-08-21T14:11:16;5.93;;;3.15;;
59486;SDS011;45298;54.918;73.504;2023-08-21T14:13:45;3.55;;;1.70;;
59486;SDS011;45298;54.918;73.504;2023-08-21T14:16:14;15.20;;;1.10;;
59486;SDS011;45298;54.918;73.504;2023-08-21T14:18:43;11.02;;;3.10;;
59486;SDS011;45298;54.918;73.504;2023-08-21T14:21:14;13.02;;;3.10;;
59486;SDS011;45298;54.918;73.504;2023-08-21T14:23:43;18.45;;;8.45;;
59486;SDS011;45298;54.918;73.504;2023-08-21T14:26:12;20.40;;;7.32;;
59486;SDS011;45298;54.918;73.504;2023-08-21T14:28:41;11.65;;;3.15;;
59486;SDS011;45298;54.918;73.504;2023-08-21T14:31:12;3.28;;;1.27;;
59486;SDS011;45298;54.918;73.504;2023-08-21T14:33:41;2.22;;;1.50;;
59486;SDS011;45298;54.918;73.504;2023-08-21T14:36:10;4.70;;;1.60;;
59486;SDS011;45298;54.918;73.504;2023-08-21T14:38:40;3.95;;;1.20;;
59486;SDS011;45298;54.918;73.504;2023-08-21T14:41:12;3.30;;;1.30;;
59486;SDS011;45298;54.918;73.504;2023-08-21T14:43:40;5.80;;;1.77;;
59486;SDS011;45298;54.918;73.504;2023-08-21T14:46:09;1.63;;;1.02;;
59486;SDS011;45298;54.918;73.504;2023-08-21T14:48:40;5.03;;;1.40;;
59486;SDS011;45298;54.918;73.504;2023-08-21T14:51:09;4.43;;;1.30;;
59486;SDS011;45298;54.918;73.504;2023-08-21T14:53:38;3.25;;;1.10;;
59486;SDS011;45298;54.918;73.504;2023-08-21T14:56:07;1.90;;;0.60;;
59486;SDS011;45298;54.918;73.504;2023-08-21T14:58:36;3.83;;;0.70;;
59486;SDS011;45298;54.918;73.504;2023-08-21T15:01:05;7.00;;;1.00;;
59486;SDS011;45298;54.918;73.504;2023-08-21T15:03:36;5.00;;;0.90;;
59486;SDS011;45298;54.918;73.504;2023-08-21T15:06:05;3.38;;;0.95;;
59486;SDS011;45298;54.918;73.504;2023-08-21T15:08:37;5.38;;;1.00;;
59486;SDS011;45298;54.918;73.504;2023-08-21T15:11:08;5.07;;;0.90;;